sensor_id;sensor_type;location;lat;lon;timestamp;P1;durP1;ratioP1;P2;durP2;ratioP2
17141;SDS011;32805;53.556;9.944;2023-03-14T00:00:11;5.50;;;2.42;;
17141;SDS011;32805;53.556;9.944;2023-03-14T00:02:42;6.22;;;2.83;;
17141;SDS011;32805;53.556;9.944;2023-03-14T00:05:10;6.72;;;2.97;;
17141;SDS011;32805;53.556;9.944;2023-03-14T00:07:38;6.95;;;2.75;;
17141;SDS011;32805;53.556;9.944;2023-03-14T00:10:07;7.60;;;4.82;;
17141;SDS011;32805;53.556;9.944;2023-03-14T00:12:37;4.22;;;2.60;;
17141;SDS011;32805;53.556;9.944;2023-03-14T00:15:05;5.05;;;2.72;;
17141;SDS011;32805;53.556;9.944;2023-03-14T00:17:34;5.13;;;2.65;;
17141;SDS011;32805;53.556;9.944;2023-03-14T00:20:04;3.97;;;2.20;;
17141;SDS011;32805;53.556;9.944;2023-03-14T00:22:36;4.45;;;2.30;;
17141;SDS011;32805;53.556;9.944;2023-03-14T00:25:04;5.78;;;2.45;;
17141;SDS011;32805;53.556;9.944;2023-03-14T00:27:33;4.45;;;2.83;;
17141;SDS011;32805;53.556;9.944;2023-03-14T00:30:00;3.88;;;2.40;;
17141;SDS011;32805;53.556;9.944;2023-03-14T00:32:28;8.40;;;2.65;;
17141;SDS011;32805;53.556;9.944;2023-03-14T00:34:56;7.15;;;2.47;;
17141;SDS011;32805;53.556;9.944;2023-03-14T00:37:27;8.30;;;2.35;;
17141;SDS011;32805;53.556;9.944;2023-03-14T00:39:54;8.48;;;3.35;;
17141;SDS011;32805;53.556;9.944;2023-03-14T00:42:24;3.83;;;2.22;;
17141;SDS011;32805;53.556;9.944;2023-03-14T00:44:52;5.80;;;2.65;;
17141;SDS011;32805;53.556;9.944;2023-03-14T00:47:19;7.72;;;2.80;;
17141;SDS011;32805;53.556;9.944;2023-03-14T00:49:47;4.57;;;2.70;;
17141;SDS011;32805;53.556;9.944;2023-03-14T00:52:14;6.50;;;2.65;;
17141;SDS011;32805;53.556;9.944;2023-03-14T00:54:43;4.55;;;2.15;;
17141;SDS011;32805;53.556;9.944;2023-03-14T00:57:11;4.50;;;2.30;;
17141;SDS011;32805;53.556;9.944;2023-03-14T00:59:39;8.13;;;2.80;;
17141;SDS011;32805;53.556;9.944;2023-03-14T01:02:07;5.13;;;2.78;;
17141;SDS011;32805;53.556;9.944;2023-03-14T01:04:34;5.90;;;2.53;;
17141;SDS011;32805;53.556;9.944;2023-03-14T01:07:03;7.18;;;2.42;;
17141;SDS011;32805;53.556;9.944;2023-03-14T01:09:31;8.07;;;2.50;;
17141;SDS011;32805;53.556;9.944;2023-03-14T01:12:00;5.82;;;2.75;;
17141;SDS011;32805;53.556;9.944;2023-03-14T01:14:27;10.23;;;2.63;;
17141;SDS011;32805;53.556;9.944;2023-03-14T01:16:56;6.13;;;2.67;;
17141;SDS011;32805;53.556;9.944;2023-03-14T01:19:27;8.77;;;2.25;;
17141;SDS011;32805;53.556;9.944;2023-03-14T01:21:55;7.78;;;2.30;;
17141;SDS011;32805;53.556;9.944;2023-03-14T01:24:22;6.80;;;2.67;;
17141;SDS011;32805;53.556;9.944;2023-03-14T01:26:50;4.75;;;2.28;;
17141;SDS011;32805;53.556;9.944;2023-03-14T01:29:19;3.67;;;2.00;;
17141;SDS011;32805;53.556;9.944;2023-03-14T01:31:46;5.85;;;2.75;;
17141;SDS011;32805;53.556;9.944;2023-03-14T01:34:14;7.25;;;2.60;;
17141;SDS011;32805;53.556;9.944;2023-03-14T01:36:42;5.80;;;2.83;;
17141;SDS011;32805;53.556;9.944;2023-03-14T01:39:09;9.45;;;3.22;;
17141;SDS011;32805;53.556;9.944;2023-03-14T01:41:37;7.28;;;2.63;;
17141;SDS011;32805;53.556;9.944;2023-03-14T01:44:05;6.07;;;2.67;;
17141;SDS011;32805;53.556;9.944;2023-03-14T01:46:38;5.22;;;2.53;;
17141;SDS011;32805;53.556;9.944;2023-03-14T01:49:09;8.07;;;2.55;;
17141;SDS011;32805;53.556;9.944;2023-03-14T01:51:44;4.85;;;2.45;;
17141;SDS011;32805;53.556;9.944;2023-03-14T01:54:16;4.28;;;2.50;;
17141;SDS011;32805;53.556;9.944;2023-03-14T01:56:48;6.53;;;2.42;;
17141;SDS011;32805;53.556;9.944;2023-03-14T01:59:20;6.30;;;2.55;;
17141;SDS011;32805;53.556;9.944;2023-03-14T02:01:50;6.70;;;2.97;;
17141;SDS011;32805;53.556;9.944;2023-03-14T02:04:18;3.72;;;2.60;;
17141;SDS011;32805;53.556;9.944;2023-03-14T02:06:49;4.45;;;2.50;;
17141;SDS011;32805;53.556;9.944;2023-03-14T02:09:23;5.35;;;2.90;;
17141;SDS011;32805;53.556;9.944;2023-03-14T02:11:51;5.40;;;2.97;;
17141;SDS011;32805;53.556;9.944;2023-03-14T02:14:42;9.85;;;2.90;;
17141;SDS011;32805;53.556;9.944;2023-03-14T02:17:25;6.05;;;2.67;;
17141;SDS011;32805;53.556;9.944;2023-03-14T02:20:14;8.68;;;3.50;;
17141;SDS011;32805;53.556;9.944;2023-03-14T02:22:54;4.93;;;2.60;;
17141;SDS011;32805;53.556;9.944;2023-03-14T02:25:24;8.15;;;3.40;;
17141;SDS011;32805;53.556;9.944;2023-03-14T02:28:01;4.90;;;2.47;;
17141;SDS011;32805;53.556;9.944;2023-03-14T02:30:30;4.97;;;2.72;;
17141;SDS011;32805;53.556;9.944;2023-03-14T02:33:00;6.50;;;2.92;;
17141;SDS011;32805;53.556;9.944;2023-03-14T02:35:32;4.05;;;2.60;;
17141;SDS011;32805;53.556;9.944;2023-03-14T02:38:05;4.57;;;2.50;;
17141;SDS011;32805;53.556;9.944;2023-03-14T02:40:40;7.53;;;3.10;;
17141;SDS011;32805;53.556;9.944;2023-03-14T02:43:09;5.53;;;2.75;;
17141;SDS011;32805;53.556;9.944;2023-03-14T02:45:42;4.35;;;3.10;;
17141;SDS011;32805;53.556;9.944;2023-03-14T02:48:18;6.88;;;3.20;;
17141;SDS011;32805;53.556;9.944;2023-03-14T02:50:48;8.20;;;3.20;;
17141;SDS011;32805;53.556;9.944;2023-03-14T02:53:18;6.13;;;3.17;;
17141;SDS011;32805;53.556;9.944;2023-03-14T02:55:48;3.85;;;2.90;;
17141;SDS011;32805;53.556;9.944;2023-03-14T02:58:20;4.03;;;2.80;;
17141;SDS011;32805;53.556;9.944;2023-03-14T03:00:53;5.22;;;3.13;;
17141;SDS011;32805;53.556;9.944;2023-03-14T03:03:22;5.75;;;3.10;;
17141;SDS011;32805;53.556;9.944;2023-03-14T03:05:50;4.70;;;3.20;;
17141;SDS011;32805;53.556;9.944;2023-03-14T03:08:18;4.80;;;2.88;;
17141;SDS011;32805;53.556;9.944;2023-03-14T03:10:46;6.68;;;3.17;;
17141;SDS011;32805;53.556;9.944;2023-03-14T03:13:15;4.55;;;2.67;;
17141;SDS011;32805;53.556;9.944;2023-03-14T03:15:47;7.03;;;3.05;;
17141;SDS011;32805;53.556;9.944;2023-03-14T03:18:14;5.13;;;3.03;;
17141;SDS011;32805;53.556;9.944;2023-03-14T03:20:42;6.35;;;3.10;;
17141;SDS011;32805;53.556;9.944;2023-03-14T03:23:10;5.03;;;3.35;;
17141;SDS011;32805;53.556;9.944;2023-03-14T03:25:37;4.28;;;2.53;;
17141;SDS011;32805;53.556;9.944;2023-03-14T03:28:05;6.95;;;2.92;;
17141;SDS011;32805;53.556;9.944;2023-03-14T03:30:37;6.90;;;2.95;;
17141;SDS011;32805;53.556;9.944;2023-03-14T03:33:07;5.35;;;2.95;;
17141;SDS011;32805;53.556;9.944;2023-03-14T03:35:35;6.65;;;3.13;;
17141;SDS011;32805;53.556;9.944;2023-03-14T03:38:09;5.43;;;2.55;;
17141;SDS011;32805;53.556;9.944;2023-03-14T03:40:38;5.15;;;2.40;;
17141;SDS011;32805;53.556;9.944;2023-03-14T03:43:07;8.05;;;3.50;;
17141;SDS011;32805;53.556;9.944;2023-03-14T03:45:37;4.90;;;2.30;;
17141;SDS011;32805;53.556;9.944;2023-03-14T03:48:07;7.40;;;2.58;;
17141;SDS011;32805;53.556;9.944;2023-03-14T03:50:34;4.85;;;2.33;;
17141;SDS011;32805;53.556;9.944;2023-03-14T03:53:02;6.07;;;2.65;;
17141;SDS011;32805;53.556;9.944;2023-03-14T03:55:30;5.90;;;2.50;;
17141;SDS011;32805;53.556;9.944;2023-03-14T03:57:57;7.38;;;3.03;;
17141;SDS011;32805;53.556;9.944;2023-03-14T04:00:25;5.82;;;2.75;;
17141;SDS011;32805;53.556;9.944;2023-03-14T04:02:52;6.15;;;2.60;;
17141;SDS011;32805;53.556;9.944;2023-03-14T04:05:22;6.82;;;2.75;;
17141;SDS011;32805;53.556;9.944;2023-03-14T04:07:56;6.32;;;2.92;;
17141;SDS011;32805;53.556;9.944;2023-03-14T04:10:26;6.85;;;3.97;;
17141;SDS011;32805;53.556;9.944;2023-03-14T04:13:07;7.97;;;4.05;;
17141;SDS011;32805;53.556;9.944;2023-03-14T04:15:37;6.78;;;3.05;;
17141;SDS011;32805;53.556;9.944;2023-03-14T04:18:13;7.15;;;2.80;;
17141;SDS011;32805;53.556;9.944;2023-03-14T04:20:43;4.93;;;3.45;;
17141;SDS011;32805;53.556;9.944;2023-03-14T04:23:11;6.03;;;3.03;;
17141;SDS011;32805;53.556;9.944;2023-03-14T04:25:39;5.80;;;2.90;;
17141;SDS011;32805;53.556;9.944;2023-03-14T04:28:07;7.03;;;3.55;;
17141;SDS011;32805;53.556;9.944;2023-03-14T04:30:35;9.63;;;3.30;;
17141;SDS011;32805;53.556;9.944;2023-03-14T04:33:10;6.57;;;3.10;;
17141;SDS011;32805;53.556;9.944;2023-03-14T04:35:46;10.05;;;3.70;;
17141;SDS011;32805;53.556;9.944;2023-03-14T04:38:16;12.73;;;6.28;;
17141;SDS011;32805;53.556;9.944;2023-03-14T04:40:45;6.43;;;3.70;;
17141;SDS011;32805;53.556;9.944;2023-03-14T04:43:14;8.82;;;3.63;;
17141;SDS011;32805;53.556;9.944;2023-03-14T04:45:57;6.43;;;3.40;;
17141;SDS011;32805;53.556;9.944;2023-03-14T04:48:26;6.43;;;3.20;;
17141;SDS011;32805;53.556;9.944;2023-03-14T04:50:55;10.55;;;4.28;;
17141;SDS011;32805;53.556;9.944;2023-03-14T04:53:24;10.35;;;3.47;;
17141;SDS011;32805;53.556;9.944;2023-03-14T04:55:54;7.35;;;3.45;;
17141;SDS011;32805;53.556;9.944;2023-03-14T04:58:27;8.50;;;3.75;;
17141;SDS011;32805;53.556;9.944;2023-03-14T05:01:00;6.22;;;3.90;;
17141;SDS011;32805;53.556;9.944;2023-03-14T05:03:43;6.10;;;3.47;;
17141;SDS011;32805;53.556;9.944;2023-03-14T05:06:17;6.55;;;4.30;;
17141;SDS011;32805;53.556;9.944;2023-03-14T05:09:02;9.70;;;4.35;;
17141;SDS011;32805;53.556;9.944;2023-03-14T05:11:31;7.43;;;3.00;;
17141;SDS011;32805;53.556;9.944;2023-03-14T05:14:17;6.95;;;2.70;;
17141;SDS011;32805;53.556;9.944;2023-03-14T05:17:03;2.88;;;2.17;;
17141;SDS011;32805;53.556;9.944;2023-03-14T05:19:42;7.03;;;3.03;;
17141;SDS011;32805;53.556;9.944;2023-03-14T05:22:11;4.18;;;2.58;;
17141;SDS011;32805;53.556;9.944;2023-03-14T05:24:59;6.55;;;2.95;;
17141;SDS011;32805;53.556;9.944;2023-03-14T05:27:50;6.10;;;3.08;;
17141;SDS011;32805;53.556;9.944;2023-03-14T05:30:45;4.82;;;3.05;;
17141;SDS011;32805;53.556;9.944;2023-03-14T05:33:32;6.35;;;3.10;;
17141;SDS011;32805;53.556;9.944;2023-03-14T05:36:23;7.38;;;3.30;;
17141;SDS011;32805;53.556;9.944;2023-03-14T05:39:30;5.93;;;3.80;;
17141;SDS011;32805;53.556;9.944;2023-03-14T05:42:08;8.02;;;3.92;;
17141;SDS011;32805;53.556;9.944;2023-03-14T05:45:05;7.03;;;4.10;;
17141;SDS011;32805;53.556;9.944;2023-03-14T05:48:11;5.85;;;4.28;;
17141;SDS011;32805;53.556;9.944;2023-03-14T05:50:46;8.57;;;4.65;;
17141;SDS011;32805;53.556;9.944;2023-03-14T05:53:23;12.98;;;4.93;;
17141;SDS011;32805;53.556;9.944;2023-03-14T05:56:02;7.95;;;5.18;;
17141;SDS011;32805;53.556;9.944;2023-03-14T05:59:05;8.00;;;5.80;;
17141;SDS011;32805;53.556;9.944;2023-03-14T06:01:44;12.68;;;6.45;;
17141;SDS011;32805;53.556;9.944;2023-03-14T06:04:16;14.10;;;6.97;;
17141;SDS011;32805;53.556;9.944;2023-03-14T06:06:49;13.27;;;6.93;;
17141;SDS011;32805;53.556;9.944;2023-03-14T06:09:17;15.20;;;7.43;;
17141;SDS011;32805;53.556;9.944;2023-03-14T06:11:47;13.07;;;7.30;;
17141;SDS011;32805;53.556;9.944;2023-03-14T06:14:15;12.63;;;6.97;;
17141;SDS011;32805;53.556;9.944;2023-03-14T06:16:46;15.68;;;7.43;;
17141;SDS011;32805;53.556;9.944;2023-03-14T06:19:16;13.10;;;7.05;;
17141;SDS011;32805;53.556;9.944;2023-03-14T06:21:44;15.70;;;6.22;;
17141;SDS011;32805;53.556;9.944;2023-03-14T06:24:11;10.23;;;6.32;;
17141;SDS011;32805;53.556;9.944;2023-03-14T06:26:44;8.85;;;5.95;;
17141;SDS011;32805;53.556;9.944;2023-03-14T06:29:13;12.70;;;6.43;;
17141;SDS011;32805;53.556;9.944;2023-03-14T06:31:41;10.15;;;6.18;;
17141;SDS011;32805;53.556;9.944;2023-03-14T06:34:09;9.35;;;5.40;;
17141;SDS011;32805;53.556;9.944;2023-03-14T06:36:38;12.85;;;6.25;;
17141;SDS011;32805;53.556;9.944;2023-03-14T06:39:06;7.55;;;5.43;;
17141;SDS011;32805;53.556;9.944;2023-03-14T06:41:38;13.02;;;6.25;;
17141;SDS011;32805;53.556;9.944;2023-03-14T06:44:07;7.90;;;4.97;;
17141;SDS011;32805;53.556;9.944;2023-03-14T06:46:36;10.45;;;5.53;;
17141;SDS011;32805;53.556;9.944;2023-03-14T06:49:04;6.35;;;4.40;;
17141;SDS011;32805;53.556;9.944;2023-03-14T06:51:32;10.85;;;4.95;;
17141;SDS011;32805;53.556;9.944;2023-03-14T06:54:02;8.43;;;4.43;;
17141;SDS011;32805;53.556;9.944;2023-03-14T06:56:30;8.30;;;4.05;;
17141;SDS011;32805;53.556;9.944;2023-03-14T06:58:58;7.85;;;3.97;;
17141;SDS011;32805;53.556;9.944;2023-03-14T07:01:29;4.07;;;3.17;;
17141;SDS011;32805;53.556;9.944;2023-03-14T07:04:06;6.53;;;3.03;;
17141;SDS011;32805;53.556;9.944;2023-03-14T07:06:35;5.30;;;3.15;;
17141;SDS011;32805;53.556;9.944;2023-03-14T07:09:05;7.95;;;2.42;;
17141;SDS011;32805;53.556;9.944;2023-03-14T07:11:37;5.63;;;2.58;;
17141;SDS011;32805;53.556;9.944;2023-03-14T07:14:05;6.50;;;2.53;;
17141;SDS011;32805;53.556;9.944;2023-03-14T07:16:32;5.18;;;2.30;;
17141;SDS011;32805;53.556;9.944;2023-03-14T07:19:00;6.32;;;2.08;;
17141;SDS011;32805;53.556;9.944;2023-03-14T07:21:31;5.10;;;2.00;;
17141;SDS011;32805;53.556;9.944;2023-03-14T07:24:04;5.72;;;2.00;;
17141;SDS011;32805;53.556;9.944;2023-03-14T07:26:32;4.10;;;1.60;;
17141;SDS011;32805;53.556;9.944;2023-03-14T07:29:00;4.40;;;1.90;;
17141;SDS011;32805;53.556;9.944;2023-03-14T07:31:30;6.50;;;2.55;;
17141;SDS011;32805;53.556;9.944;2023-03-14T07:33:59;4.38;;;2.33;;
17141;SDS011;32805;53.556;9.944;2023-03-14T07:36:32;4.95;;;2.58;;
17141;SDS011;32805;53.556;9.944;2023-03-14T07:39:00;4.30;;;2.65;;
17141;SDS011;32805;53.556;9.944;2023-03-14T07:41:33;6.22;;;3.47;;
17141;SDS011;32805;53.556;9.944;2023-03-14T07:44:20;5.45;;;2.58;;
17141;SDS011;32805;53.556;9.944;2023-03-14T07:46:47;5.55;;;2.10;;
17141;SDS011;32805;53.556;9.944;2023-03-14T07:49:15;4.82;;;2.17;;
17141;SDS011;32805;53.556;9.944;2023-03-14T07:51:44;4.97;;;2.70;;
17141;SDS011;32805;53.556;9.944;2023-03-14T07:54:14;5.75;;;2.00;;
17141;SDS011;32805;53.556;9.944;2023-03-14T07:56:42;5.05;;;1.88;;
17141;SDS011;32805;53.556;9.944;2023-03-14T07:59:09;4.40;;;1.80;;
17141;SDS011;32805;53.556;9.944;2023-03-14T08:01:38;3.95;;;1.90;;
17141;SDS011;32805;53.556;9.944;2023-03-14T08:04:05;5.10;;;1.83;;
17141;SDS011;32805;53.556;9.944;2023-03-14T08:06:34;3.70;;;1.52;;
17141;SDS011;32805;53.556;9.944;2023-03-14T08:09:03;5.20;;;1.70;;
17141;SDS011;32805;53.556;9.944;2023-03-14T08:11:31;4.35;;;1.88;;
17141;SDS011;32805;53.556;9.944;2023-03-14T08:13:59;3.45;;;1.60;;
17141;SDS011;32805;53.556;9.944;2023-03-14T08:16:26;3.63;;;1.70;;
17141;SDS011;32805;53.556;9.944;2023-03-14T08:18:54;3.70;;;1.38;;
17141;SDS011;32805;53.556;9.944;2023-03-14T08:21:22;4.57;;;1.70;;
17141;SDS011;32805;53.556;9.944;2023-03-14T08:23:49;4.25;;;1.83;;
17141;SDS011;32805;53.556;9.944;2023-03-14T08:26:18;4.57;;;1.70;;
17141;SDS011;32805;53.556;9.944;2023-03-14T08:28:46;2.95;;;1.52;;
17141;SDS011;32805;53.556;9.944;2023-03-14T08:31:13;4.95;;;1.85;;
17141;SDS011;32805;53.556;9.944;2023-03-14T08:33:41;3.28;;;1.63;;
17141;SDS011;32805;53.556;9.944;2023-03-14T08:36:09;6.10;;;2.13;;
17141;SDS011;32805;53.556;9.944;2023-03-14T08:38:37;6.68;;;3.03;;
17141;SDS011;32805;53.556;9.944;2023-03-14T08:41:05;4.13;;;2.05;;
17141;SDS011;32805;53.556;9.944;2023-03-14T08:43:35;5.50;;;2.47;;
17141;SDS011;32805;53.556;9.944;2023-03-14T08:46:02;4.85;;;2.40;;
17141;SDS011;32805;53.556;9.944;2023-03-14T08:48:30;4.63;;;2.30;;
17141;SDS011;32805;53.556;9.944;2023-03-14T08:51:03;7.07;;;2.20;;
17141;SDS011;32805;53.556;9.944;2023-03-14T08:53:31;4.13;;;2.45;;
17141;SDS011;32805;53.556;9.944;2023-03-14T08:55:59;5.90;;;2.88;;
17141;SDS011;32805;53.556;9.944;2023-03-14T08:58:27;7.57;;;2.83;;
17141;SDS011;32805;53.556;9.944;2023-03-14T09:00:56;4.82;;;3.00;;
17141;SDS011;32805;53.556;9.944;2023-03-14T09:03:24;8.40;;;2.90;;
17141;SDS011;32805;53.556;9.944;2023-03-14T09:05:52;5.53;;;2.88;;
17141;SDS011;32805;53.556;9.944;2023-03-14T09:08:20;5.10;;;3.65;;
17141;SDS011;32805;53.556;9.944;2023-03-14T09:10:47;5.20;;;3.55;;
17141;SDS011;32805;53.556;9.944;2023-03-14T09:13:15;4.07;;;2.83;;
17141;SDS011;32805;53.556;9.944;2023-03-14T09:15:43;5.60;;;3.35;;
17141;SDS011;32805;53.556;9.944;2023-03-14T09:18:12;7.00;;;3.78;;
17141;SDS011;32805;53.556;9.944;2023-03-14T09:20:39;4.47;;;3.20;;
17141;SDS011;32805;53.556;9.944;2023-03-14T09:23:08;10.13;;;3.40;;
17141;SDS011;32805;53.556;9.944;2023-03-14T09:25:35;5.80;;;2.95;;
17141;SDS011;32805;53.556;9.944;2023-03-14T09:28:03;7.70;;;3.72;;
17141;SDS011;32805;53.556;9.944;2023-03-14T09:30:31;9.50;;;3.45;;
17141;SDS011;32805;53.556;9.944;2023-03-14T09:32:59;6.10;;;3.00;;
17141;SDS011;32805;53.556;9.944;2023-03-14T09:35:28;6.43;;;3.10;;
17141;SDS011;32805;53.556;9.944;2023-03-14T09:37:56;8.05;;;3.60;;
17141;SDS011;32805;53.556;9.944;2023-03-14T09:40:23;5.78;;;3.55;;
17141;SDS011;32805;53.556;9.944;2023-03-14T09:42:52;6.63;;;3.38;;
17141;SDS011;32805;53.556;9.944;2023-03-14T09:45:23;6.85;;;3.30;;
17141;SDS011;32805;53.556;9.944;2023-03-14T09:47:53;7.55;;;3.67;;
17141;SDS011;32805;53.556;9.944;2023-03-14T09:50:25;5.63;;;3.60;;
17141;SDS011;32805;53.556;9.944;2023-03-14T09:52:56;6.93;;;2.38;;
17141;SDS011;32805;53.556;9.944;2023-03-14T09:55:29;3.65;;;1.00;;
17141;SDS011;32805;53.556;9.944;2023-03-14T09:57:57;1.35;;;0.80;;
17141;SDS011;32805;53.556;9.944;2023-03-14T10:00:27;1.40;;;0.80;;
17141;SDS011;32805;53.556;9.944;2023-03-14T10:03:00;2.20;;;0.93;;
17141;SDS011;32805;53.556;9.944;2023-03-14T10:05:36;3.03;;;1.25;;
17141;SDS011;32805;53.556;9.944;2023-03-14T10:08:05;2.22;;;1.30;;
17141;SDS011;32805;53.556;9.944;2023-03-14T10:10:33;3.08;;;1.33;;
17141;SDS011;32805;53.556;9.944;2023-03-14T10:13:05;1.40;;;1.30;;
17141;SDS011;32805;53.556;9.944;2023-03-14T10:15:40;1.75;;;1.17;;
17141;SDS011;32805;53.556;9.944;2023-03-14T10:18:10;3.22;;;1.20;;
17141;SDS011;32805;53.556;9.944;2023-03-14T10:20:40;3.20;;;1.30;;
17141;SDS011;32805;53.556;9.944;2023-03-14T10:23:21;2.97;;;1.30;;
17141;SDS011;32805;53.556;9.944;2023-03-14T10:25:59;3.08;;;1.02;;
17141;SDS011;32805;53.556;9.944;2023-03-14T10:28:31;3.70;;;1.35;;
17141;SDS011;32805;53.556;9.944;2023-03-14T10:31:00;3.00;;;1.00;;
17141;SDS011;32805;53.556;9.944;2023-03-14T10:33:29;1.00;;;0.90;;
17141;SDS011;32805;53.556;9.944;2023-03-14T10:35:59;0.95;;;0.60;;
17141;SDS011;32805;53.556;9.944;2023-03-14T10:38:30;0.60;;;0.55;;
17141;SDS011;32805;53.556;9.944;2023-03-14T10:40:59;4.22;;;1.15;;
17141;SDS011;32805;53.556;9.944;2023-03-14T10:43:30;1.73;;;0.60;;
17141;SDS011;32805;53.556;9.944;2023-03-14T10:46:00;2.63;;;0.65;;
17141;SDS011;32805;53.556;9.944;2023-03-14T10:48:34;0.75;;;0.47;;
17141;SDS011;32805;53.556;9.944;2023-03-14T10:51:04;0.73;;;0.68;;
17141;SDS011;32805;53.556;9.944;2023-03-14T10:53:36;0.47;;;0.45;;
17141;SDS011;32805;53.556;9.944;2023-03-14T10:56:07;2.53;;;0.57;;
17141;SDS011;32805;53.556;9.944;2023-03-14T10:58:38;2.35;;;0.68;;
17141;SDS011;32805;53.556;9.944;2023-03-14T11:01:14;1.00;;;0.85;;
17141;SDS011;32805;53.556;9.944;2023-03-14T11:03:54;1.35;;;0.40;;
17141;SDS011;32805;53.556;9.944;2023-03-14T11:06:26;0.80;;;0.50;;
17141;SDS011;32805;53.556;9.944;2023-03-14T11:09:02;1.25;;;0.77;;
17141;SDS011;32805;53.556;9.944;2023-03-14T11:11:34;0.85;;;0.50;;
17141;SDS011;32805;53.556;9.944;2023-03-14T11:14:05;2.33;;;0.63;;
17141;SDS011;32805;53.556;9.944;2023-03-14T11:16:43;1.15;;;0.50;;
17141;SDS011;32805;53.556;9.944;2023-03-14T11:19:25;0.70;;;0.70;;
17141;SDS011;32805;53.556;9.944;2023-03-14T11:22:02;2.42;;;0.63;;
17141;SDS011;32805;53.556;9.944;2023-03-14T11:24:44;0.52;;;0.38;;
17141;SDS011;32805;53.556;9.944;2023-03-14T11:27:25;2.75;;;0.60;;
17141;SDS011;32805;53.556;9.944;2023-03-14T11:29:59;2.58;;;0.80;;
17141;SDS011;32805;53.556;9.944;2023-03-14T11:32:35;1.80;;;0.90;;
17141;SDS011;32805;53.556;9.944;2023-03-14T11:35:12;2.20;;;0.75;;
17141;SDS011;32805;53.556;9.944;2023-03-14T11:37:46;1.38;;;0.70;;
17141;SDS011;32805;53.556;9.944;2023-03-14T11:40:16;2.00;;;1.00;;
17141;SDS011;32805;53.556;9.944;2023-03-14T11:42:46;1.58;;;0.68;;
17141;SDS011;32805;53.556;9.944;2023-03-14T11:45:20;4.32;;;1.10;;
17141;SDS011;32805;53.556;9.944;2023-03-14T11:47:55;1.95;;;0.93;;
17141;SDS011;32805;53.556;9.944;2023-03-14T11:50:31;3.45;;;1.00;;
17141;SDS011;32805;53.556;9.944;2023-03-14T11:53:01;2.03;;;1.13;;
17141;SDS011;32805;53.556;9.944;2023-03-14T11:55:38;3.95;;;0.90;;
17141;SDS011;32805;53.556;9.944;2023-03-14T11:58:11;5.47;;;0.70;;
17141;SDS011;32805;53.556;9.944;2023-03-14T12:00:41;4.65;;;0.88;;
17141;SDS011;32805;53.556;9.944;2023-03-14T12:03:13;1.63;;;0.60;;
17141;SDS011;32805;53.556;9.944;2023-03-14T12:05:48;4.95;;;0.98;;
17141;SDS011;32805;53.556;9.944;2023-03-14T12:08:30;3.83;;;1.00;;
17141;SDS011;32805;53.556;9.944;2023-03-14T12:11:08;2.92;;;1.13;;
17141;SDS011;32805;53.556;9.944;2023-03-14T12:13:39;3.55;;;1.30;;
17141;SDS011;32805;53.556;9.944;2023-03-14T12:16:18;5.07;;;1.20;;
17141;SDS011;32805;53.556;9.944;2023-03-14T12:18:57;8.50;;;1.55;;
17141;SDS011;32805;53.556;9.944;2023-03-14T12:21:44;4.68;;;1.02;;
17141;SDS011;32805;53.556;9.944;2023-03-14T12:24:17;4.78;;;1.02;;
17141;SDS011;32805;53.556;9.944;2023-03-14T12:26:51;2.83;;;0.77;;
17141;SDS011;32805;53.556;9.944;2023-03-14T12:29:21;3.58;;;0.85;;
17141;SDS011;32805;53.556;9.944;2023-03-14T12:32:05;6.95;;;1.35;;
17141;SDS011;32805;53.556;9.944;2023-03-14T12:34:39;7.82;;;1.33;;
17141;SDS011;32805;53.556;9.944;2023-03-14T12:37:17;4.38;;;1.30;;
17141;SDS011;32805;53.556;9.944;2023-03-14T12:39:55;6.18;;;1.27;;
17141;SDS011;32805;53.556;9.944;2023-03-14T12:42:37;6.15;;;1.30;;
17141;SDS011;32805;53.556;9.944;2023-03-14T12:45:15;9.25;;;1.52;;
17141;SDS011;32805;53.556;9.944;2023-03-14T12:47:59;5.32;;;1.38;;
17141;SDS011;32805;53.556;9.944;2023-03-14T12:50:35;5.90;;;1.70;;
17141;SDS011;32805;53.556;9.944;2023-03-14T12:53:12;4.25;;;1.27;;
17141;SDS011;32805;53.556;9.944;2023-03-14T12:59:30;7.43;;;1.70;;
17141;SDS011;32805;53.556;9.944;2023-03-14T13:02:01;8.98;;;1.50;;
17141;SDS011;32805;53.556;9.944;2023-03-14T13:04:45;4.75;;;1.40;;
17141;SDS011;32805;53.556;9.944;2023-03-14T13:07:28;5.65;;;1.58;;
17141;SDS011;32805;53.556;9.944;2023-03-14T13:10:17;10.55;;;3.90;;
17141;SDS011;32805;53.556;9.944;2023-03-14T13:12:48;8.80;;;2.67;;
17141;SDS011;32805;53.556;9.944;2023-03-14T13:15:20;7.45;;;2.20;;
17141;SDS011;32805;53.556;9.944;2023-03-14T13:17:51;6.82;;;2.10;;
17141;SDS011;32805;53.556;9.944;2023-03-14T13:20:22;6.47;;;1.65;;
17141;SDS011;32805;53.556;9.944;2023-03-14T13:22:55;8.95;;;1.77;;
17141;SDS011;32805;53.556;9.944;2023-03-14T13:25:23;7.50;;;1.67;;
17141;SDS011;32805;53.556;9.944;2023-03-14T13:27:52;9.00;;;1.90;;
17141;SDS011;32805;53.556;9.944;2023-03-14T13:30:24;11.88;;;2.17;;
17141;SDS011;32805;53.556;9.944;2023-03-14T13:32:53;10.23;;;2.00;;
17141;SDS011;32805;53.556;9.944;2023-03-14T13:35:23;8.00;;;1.20;;
17141;SDS011;32805;53.556;9.944;2023-03-14T13:37:56;6.82;;;1.52;;
17141;SDS011;32805;53.556;9.944;2023-03-14T13:40:37;10.40;;;1.60;;
17141;SDS011;32805;53.556;9.944;2023-03-14T13:43:15;3.90;;;1.10;;
17141;SDS011;32805;53.556;9.944;2023-03-14T13:45:48;10.63;;;1.85;;
17141;SDS011;32805;53.556;9.944;2023-03-14T13:48:17;3.30;;;1.13;;
17141;SDS011;32805;53.556;9.944;2023-03-14T13:50:49;7.13;;;1.30;;
17141;SDS011;32805;53.556;9.944;2023-03-14T13:53:19;8.82;;;1.60;;
17141;SDS011;32805;53.556;9.944;2023-03-14T13:55:46;12.35;;;1.65;;
17141;SDS011;32805;53.556;9.944;2023-03-14T13:58:21;5.22;;;1.10;;
17141;SDS011;32805;53.556;9.944;2023-03-14T14:00:59;5.00;;;1.35;;
17141;SDS011;32805;53.556;9.944;2023-03-14T14:03:30;9.45;;;1.58;;
17141;SDS011;32805;53.556;9.944;2023-03-14T14:05:59;10.00;;;2.13;;
17141;SDS011;32805;53.556;9.944;2023-03-14T14:08:27;11.45;;;1.67;;
17141;SDS011;32805;53.556;9.944;2023-03-14T14:10:57;8.25;;;2.08;;
17141;SDS011;32805;53.556;9.944;2023-03-14T14:13:29;7.28;;;1.75;;
17141;SDS011;32805;53.556;9.944;2023-03-14T14:16:00;8.40;;;1.55;;
17141;SDS011;32805;53.556;9.944;2023-03-14T14:18:31;9.25;;;1.58;;
17141;SDS011;32805;53.556;9.944;2023-03-14T14:21:01;8.32;;;1.65;;
17141;SDS011;32805;53.556;9.944;2023-03-14T14:23:30;16.02;;;1.88;;
17141;SDS011;32805;53.556;9.944;2023-03-14T14:25:58;2.88;;;1.30;;
17141;SDS011;32805;53.556;9.944;2023-03-14T14:28:27;3.63;;;1.55;;
17141;SDS011;32805;53.556;9.944;2023-03-14T14:31:16;5.38;;;1.35;;
17141;SDS011;32805;53.556;9.944;2023-03-14T14:33:46;7.22;;;1.45;;
17141;SDS011;32805;53.556;9.944;2023-03-14T14:36:22;8.93;;;1.63;;
17141;SDS011;32805;53.556;9.944;2023-03-14T14:38:52;6.47;;;1.77;;
17141;SDS011;32805;53.556;9.944;2023-03-14T14:41:20;8.10;;;1.45;;
17141;SDS011;32805;53.556;9.944;2023-03-14T14:43:48;3.17;;;1.00;;
17141;SDS011;32805;53.556;9.944;2023-03-14T14:46:20;3.90;;;0.98;;
17141;SDS011;32805;53.556;9.944;2023-03-14T14:48:48;4.82;;;1.15;;
17141;SDS011;32805;53.556;9.944;2023-03-14T14:51:24;2.75;;;0.93;;
17141;SDS011;32805;53.556;9.944;2023-03-14T14:54:11;4.47;;;1.08;;
17141;SDS011;32805;53.556;9.944;2023-03-14T14:56:47;4.13;;;2.00;;
17141;SDS011;32805;53.556;9.944;2023-03-14T14:59:18;6.88;;;1.25;;
17141;SDS011;32805;53.556;9.944;2023-03-14T15:01:54;4.32;;;1.15;;
17141;SDS011;32805;53.556;9.944;2023-03-14T15:04:23;8.30;;;1.65;;
17141;SDS011;32805;53.556;9.944;2023-03-14T15:06:50;5.03;;;1.70;;
17141;SDS011;32805;53.556;9.944;2023-03-14T15:09:19;5.30;;;1.33;;
17141;SDS011;32805;53.556;9.944;2023-03-14T15:11:47;5.13;;;1.30;;
17141;SDS011;32805;53.556;9.944;2023-03-14T15:14:15;5.97;;;1.30;;
17141;SDS011;32805;53.556;9.944;2023-03-14T15:16:43;9.25;;;1.63;;